createdAt,value
2018-09-13T00:01:32.638Z,102027.55
2018-09-13T00:04:01.197Z,102030.09
2018-09-13T00:06:29.793Z,102027.19
2018-09-13T00:08:58.379Z,102035.40
2018-09-13T00:11:26.969Z,102037.61
2018-09-13T00:13:55.521Z,102035.40
2018-09-13T00:16:24.137Z,102034.68
2018-09-13T00:18:52.700Z,102038.27
2018-09-13T00:21:21.282Z,102036.25
2018-09-13T00:23:49.829Z,102037.97
2018-09-13T00:26:18.433Z,102042.80
2018-09-13T00:28:47.027Z,102045.73
2018-09-13T00:31:15.622Z,102038.89
2018-09-13T00:33:44.464Z,102036.80
2018-09-13T00:36:13.281Z,102029.92
2018-09-13T00:38:41.891Z,102028.72
2018-09-13T00:41:10.469Z,102034.52
2018-09-13T00:43:39.039Z,102029.01
2018-09-13T00:46:07.617Z,102031.75
2018-09-13T00:48:36.177Z,102023.82
2018-09-13T00:51:04.744Z,102020.68
2018-09-13T00:53:33.324Z,102018.61
2018-09-13T00:56:01.884Z,102022.84
2018-09-13T00:58:30.469Z,102019.74
2018-09-13T01:00:59.033Z,102013.42
2018-09-13T01:03:27.641Z,102017.73
2018-09-13T01:05:56.210Z,102018.42
2018-09-13T01:08:24.783Z,102018.78
2018-09-13T01:10:53.364Z,102016.53
2018-09-13T01:13:21.949Z,102010.56
2018-09-13T01:15:50.577Z,102009.36
2018-09-13T01:18:19.166Z,102004.57
2018-09-13T01:20:47.754Z,101999.82
2018-09-13T01:23:16.336Z,102000.02
2018-09-13T01:25:44.897Z,102000.59
2018-09-13T01:28:13.497Z,101998.77
2018-09-13T01:30:42.086Z,101997.97
2018-09-13T01:33:10.668Z,101995.14
2018-09-13T01:35:39.220Z,101998.63
2018-09-13T01:38:07.801Z,101991.45
2018-09-13T01:40:36.345Z,101989.77
2018-09-13T01:43:04.959Z,101990.48
2018-09-13T01:45:33.525Z,101992.70
2018-09-13T01:48:02.107Z,102006.70
2018-09-13T01:50:30.664Z,102004.48
2018-09-13T01:52:59.250Z,102003.48
2018-09-13T01:55:27.830Z,102007.25
2018-09-13T01:57:56.413Z,102010.02
2018-09-13T02:00:24.972Z,102003.53
2018-09-13T02:02:53.604Z,102006.63
2018-09-13T02:05:22.182Z,102008.19
2018-09-13T02:07:50.804Z,102007.50
2018-09-13T02:10:19.377Z,102009.91
2018-09-13T02:12:47.958Z,102007.70
2018-09-13T02:15:16.542Z,102007.70
2018-09-13T02:17:45.201Z,102010.92
2018-09-13T02:20:13.804Z,102011.44
2018-09-13T02:22:42.394Z,102011.63
2018-09-13T02:25:10.965Z,102009.61
2018-09-13T02:27:39.569Z,102005.23
2018-09-13T02:30:08.158Z,101997.59
2018-09-13T02:32:36.754Z,102003.76
2018-09-13T02:35:05.359Z,102000.89
2018-09-13T02:37:33.982Z,102002.41
2018-09-13T02:40:02.567Z,101999.02
2018-09-13T02:42:31.218Z,102005.36
2018-09-13T02:44:59.776Z,102002.97
2018-09-13T02:47:28.353Z,102005.20
2018-09-13T02:49:56.917Z,102007.25
2018-09-13T02:52:25.518Z,102001.47
2018-09-13T02:54:54.080Z,102009.86
2018-09-13T02:57:22.649Z,102011.73
2018-09-13T02:59:51.256Z,102015.31
2018-09-13T03:02:19.813Z,102019.05
2018-09-13T03:04:48.403Z,102017.54
2018-09-13T03:07:16.981Z,102018.58
2018-09-13T03:09:45.577Z,102015.83
2018-09-13T03:12:14.160Z,102010.72
2018-09-13T03:14:42.735Z,102007.48
2018-09-13T03:17:11.331Z,102006.33
2018-09-13T03:19:39.915Z,102003.73
2018-09-13T03:22:08.493Z,102006.98
2018-09-13T03:24:37.093Z,102007.34
2018-09-13T03:27:05.660Z,102007.34
2018-09-13T03:29:34.293Z,102002.22
2018-09-13T03:32:02.878Z,102008.19
2018-09-13T03:34:31.452Z,102002.08
2018-09-13T03:37:00.026Z,102001.39
2018-09-13T03:39:28.605Z,102005.68
2018-09-13T03:41:57.276Z,102004.98
2018-09-13T03:44:25.874Z,102009.78
2018-09-13T03:46:54.456Z,102006.16
2018-09-13T03:49:23.045Z,102005.84
2018-09-13T03:51:51.622Z,102004.80
2018-09-13T03:54:20.211Z,102004.80
2018-09-13T03:56:48.778Z,102010.12
2018-09-13T03:59:17.418Z,102006.70
2018-09-13T04:01:46.004Z,102010.29
2018-09-13T04:04:14.642Z,102013.69
2018-09-13T04:06:43.216Z,102011.33
2018-09-13T04:09:12.617Z,102010.12
2018-09-13T04:11:41.567Z,102007.06
2018-09-13T04:14:10.240Z,102011.30
2018-09-13T04:16:38.820Z,102026.50
2018-09-13T04:19:07.430Z,102012.86
2018-09-13T04:21:35.991Z,102014.73
2018-09-13T04:24:04.594Z,102006.37
2018-09-13T04:26:33.169Z,102003.31
2018-09-13T04:29:01.759Z,102010.13
2018-09-13T04:31:30.324Z,102006.52
2018-09-13T04:33:58.903Z,102005.52
2018-09-13T04:36:27.465Z,102004.64
2018-09-13T04:38:56.068Z,102017.44
2018-09-13T04:41:24.622Z,102011.13
2018-09-13T04:43:53.283Z,102013.16
2018-09-13T04:46:21.869Z,102012.83
2018-09-13T04:48:50.469Z,102017.62
2018-09-13T04:51:19.052Z,102017.95
2018-09-13T04:53:47.670Z,102016.73
2018-09-13T04:56:16.281Z,102018.09
2018-09-13T04:58:44.900Z,102010.28
2018-09-13T05:01:13.496Z,102015.88
2018-09-13T05:03:42.073Z,102017.58
2018-09-13T05:06:10.671Z,102017.95
2018-09-13T05:08:39.273Z,102015.41
2018-09-13T05:11:07.854Z,102023.77
2018-09-13T05:13:36.421Z,102014.73
2018-09-13T05:16:05.037Z,102020.01
2018-09-13T05:18:33.605Z,102019.49
2018-09-13T05:21:02.196Z,102015.22
2018-09-13T05:23:30.761Z,102019.68
2018-09-13T05:25:59.359Z,102020.34
2018-09-13T05:28:27.924Z,102017.45
2018-09-13T05:30:56.511Z,102024.80
2018-09-13T05:33:25.152Z,102021.55
2018-09-13T05:35:53.763Z,102021.55
2018-09-13T05:38:22.326Z,102027.70
2018-09-13T05:40:50.924Z,102026.48
2018-09-13T05:43:19.557Z,102033.48
2018-09-13T05:45:48.190Z,102023.61
2018-09-13T05:48:16.768Z,102022.39
2018-09-13T05:50:45.579Z,102028.04
2018-09-13T05:53:14.158Z,102028.70
2018-09-13T05:55:42.774Z,102031.61
2018-09-13T05:58:11.345Z,102030.57
2018-09-13T06:00:39.945Z,102032.81
2018-09-13T06:03:08.545Z,102023.77
2018-09-13T06:05:37.139Z,102031.25
2018-09-13T06:08:05.771Z,102027.84
2018-09-13T06:10:34.410Z,102031.91
2018-09-13T06:13:02.994Z,102031.75
2018-09-13T06:15:31.586Z,102033.29
2018-09-13T06:18:00.168Z,102030.89
2018-09-13T06:20:28.837Z,102031.05
2018-09-13T06:22:57.420Z,102031.22
2018-09-13T06:25:26.008Z,102030.72
2018-09-13T06:27:54.568Z,102031.41
2018-09-13T06:30:23.173Z,102039.08
2018-09-13T06:32:51.757Z,102040.62
2018-09-13T06:35:20.346Z,102036.33
2018-09-13T06:37:48.925Z,102038.89
2018-09-13T06:40:17.532Z,102038.53
2018-09-13T06:42:46.127Z,102040.56
2018-09-13T06:45:14.738Z,102039.38
2018-09-13T06:47:43.322Z,102039.05
2018-09-13T06:50:11.931Z,102040.56
2018-09-13T06:52:40.520Z,102032.34
2018-09-13T06:55:09.154Z,102035.23
2018-09-13T06:57:37.729Z,102039.13
2018-09-13T07:00:06.651Z,102037.68
2018-09-13T07:02:35.314Z,102031.98
2018-09-13T07:05:03.885Z,102033.27
2018-09-13T07:07:32.533Z,102030.51
2018-09-13T07:10:01.103Z,102029.30
2018-09-13T07:12:29.697Z,102031.73
2018-09-13T07:14:58.266Z,102031.98
2018-09-13T07:17:26.861Z,102034.16
2018-09-13T07:19:55.482Z,102036.86
2018-09-13T07:22:24.240Z,102042.07
2018-09-13T07:24:52.836Z,102038.20
2018-09-13T07:27:21.430Z,102037.77
2018-09-13T07:29:49.989Z,102038.08
2018-09-13T07:32:18.591Z,102036.39
2018-09-13T07:34:47.162Z,102029.80
2018-09-13T07:37:15.761Z,102029.36
2018-09-13T07:39:44.373Z,102028.78
2018-09-13T07:42:13.005Z,102031.01
2018-09-13T07:44:41.608Z,102033.98
2018-09-13T07:47:10.254Z,102027.03
2018-09-13T07:49:38.935Z,102021.44
2018-09-13T07:52:07.464Z,102025.83
2018-09-13T07:54:36.038Z,102024.05
2018-09-13T07:57:04.641Z,102024.08
2018-09-13T07:59:33.294Z,102030.20
2018-09-13T08:02:01.923Z,102023.21
2018-09-13T08:04:30.512Z,102023.45
2018-09-13T08:06:59.114Z,102024.45
2018-09-13T08:09:27.678Z,102026.06
2018-09-13T08:11:56.327Z,102025.36
2018-09-13T08:14:24.866Z,102034.11
2018-09-13T08:16:53.473Z,102032.12
2018-09-13T08:19:22.038Z,102033.59
2018-09-13T08:21:50.746Z,102031.05
2018-09-13T08:24:19.281Z,102030.31
2018-09-13T08:26:47.864Z,102038.77
2018-09-13T08:29:16.426Z,102034.59
2018-09-13T08:31:45.004Z,102035.77
2018-09-13T08:34:13.602Z,102036.92
2018-09-13T08:36:42.172Z,102037.93
2018-09-13T08:39:12.017Z,102034.36
2018-09-13T08:41:40.678Z,102037.91
2018-09-13T08:44:09.244Z,102031.57
2018-09-13T08:46:37.850Z,102029.35
2018-09-13T08:49:06.433Z,102024.08
2018-09-13T08:51:35.027Z,102024.11
2018-09-13T08:54:03.814Z,102020.06
2018-09-13T08:56:32.403Z,102018.59
2018-09-13T08:59:00.961Z,102016.59
2018-09-13T09:01:29.613Z,102022.19
2018-09-13T09:03:58.179Z,102015.98
2018-09-13T09:06:26.790Z,102015.66
2018-09-13T09:08:55.386Z,102007.31
2018-09-13T09:11:23.945Z,102008.80
2018-09-13T09:13:52.557Z,102010.26
2018-09-13T09:16:21.135Z,102008.37
2018-09-13T09:18:49.725Z,102004.41
2018-09-13T09:21:18.313Z,102003.45
2018-09-13T09:23:46.921Z,102007.80
2018-09-13T09:26:15.514Z,102007.24
2018-09-13T09:28:45.168Z,102003.94
2018-09-13T09:31:13.713Z,101989.95
2018-09-13T09:33:42.437Z,101993.81
2018-09-13T09:36:11.006Z,101995.42
2018-09-13T09:38:39.902Z,101990.81
2018-09-13T09:41:08.473Z,101985.97
2018-09-13T09:43:37.094Z,101985.58
2018-09-13T09:46:05.691Z,101981.27
2018-09-13T09:48:34.412Z,101981.56
2018-09-13T09:51:02.986Z,101984.02
2018-09-13T09:53:31.587Z,101979.73
2018-09-13T09:56:00.193Z,101980.23
2018-09-13T09:58:29.125Z,101981.20
2018-09-13T10:01:02.780Z,101974.95
2018-09-13T10:03:31.446Z,101975.07
2018-09-13T10:06:00.041Z,101970.16
2018-09-13T10:08:28.620Z,101964.37
2018-09-13T10:10:57.184Z,101967.58
2018-09-13T10:13:25.782Z,101965.47
2018-09-13T10:15:59.622Z,101967.36
2018-09-13T10:18:33.572Z,101972.28
2018-09-13T10:21:07.421Z,101968.78
2018-09-13T10:23:41.324Z,101966.86
2018-09-13T10:26:15.212Z,101960.47
2018-09-13T10:28:49.156Z,101970.16
2018-09-13T10:31:23.027Z,101970.98
2018-09-13T10:33:56.912Z,101966.27
2018-09-13T10:36:30.682Z,101968.48
2018-09-13T10:39:04.624Z,101962.13
2018-09-13T10:41:38.443Z,101960.05
2018-09-13T10:44:12.384Z,101957.06
2018-09-13T10:46:40.962Z,101956.19
2018-09-13T10:51:20.357Z,101954.05
2018-09-13T10:53:53.163Z,101957.83
2018-09-13T10:56:21.735Z,101954.54
2018-09-13T10:58:50.595Z,101943.81
2018-09-13T11:01:19.304Z,101942.43
2018-09-13T11:03:47.906Z,101942.03
2018-09-13T11:06:16.530Z,101939.95
2018-09-13T11:08:45.165Z,101937.95
2018-09-13T11:11:13.738Z,101947.61
2018-09-13T11:13:46.343Z,101938.65
2018-09-13T11:16:14.981Z,101940.67
2018-09-13T11:18:43.553Z,101932.91
2018-09-13T11:21:12.165Z,101940.14
2018-09-13T11:23:40.798Z,101940.27
2018-09-13T11:26:09.398Z,101944.08
2018-09-13T11:28:38.069Z,101937.73
2018-09-13T11:31:06.684Z,101929.78
2018-09-13T11:33:35.578Z,101936.05
2018-09-13T11:36:04.181Z,101930.88
2018-09-13T11:38:32.773Z,101931.16
2018-09-13T11:41:01.824Z,101929.30
2018-09-13T11:43:30.178Z,101927.15
2018-09-13T11:45:58.794Z,101922.36
2018-09-13T11:48:27.374Z,101922.05
2018-09-13T11:50:55.983Z,101915.62
2018-09-13T11:53:24.556Z,101909.56
2018-09-13T11:55:53.160Z,101909.81
2018-09-13T11:58:21.706Z,101908.86
2018-09-13T12:00:50.588Z,101907.95
2018-09-13T12:03:19.168Z,101908.66
2018-09-13T12:05:47.775Z,101899.00
2018-09-13T12:08:16.347Z,101898.13
2018-09-13T12:10:44.939Z,101896.81
2018-09-13T12:13:13.583Z,101893.36
2018-09-13T12:15:42.176Z,101891.77
2018-09-13T12:18:10.749Z,101894.02
2018-09-13T12:20:39.375Z,101896.11
2018-09-13T12:23:07.941Z,101892.39
2018-09-13T12:25:36.537Z,101888.17
2018-09-13T12:28:05.484Z,101889.02
2018-09-13T12:30:34.088Z,101887.45
2018-09-13T12:33:02.753Z,101876.46
2018-09-13T12:35:31.369Z,101880.44
2018-09-13T12:37:59.966Z,101879.92
2018-09-13T12:40:28.556Z,101886.67
2018-09-13T12:42:57.117Z,101887.87
2018-09-13T12:45:25.748Z,101881.63
2018-09-13T12:47:55.143Z,101885.80
2018-09-13T12:50:23.767Z,101888.81
2018-09-13T12:52:52.332Z,101883.88
2018-09-13T12:55:20.962Z,101878.79
2018-09-13T12:57:49.539Z,101878.59
2018-09-13T13:00:18.211Z,101879.55
2018-09-13T13:02:46.791Z,101877.32
2018-09-13T13:05:15.419Z,101878.23
2018-09-13T13:07:43.998Z,101882.75
2018-09-13T13:10:12.641Z,101874.29
2018-09-13T13:12:41.239Z,101870.86
2018-09-13T13:15:09.871Z,101872.84
2018-09-13T13:17:38.451Z,101869.53
2018-09-13T13:20:07.113Z,101867.50
2018-09-13T13:22:35.723Z,101870.16
2018-09-13T13:25:04.318Z,101860.75
2018-09-13T13:27:33.393Z,101868.19
2018-09-13T13:30:02.345Z,101862.60
2018-09-13T13:32:30.934Z,101859.45
2018-09-13T13:34:59.500Z,101854.45
2018-09-13T13:37:28.098Z,101853.86
2018-09-13T13:39:56.697Z,101853.87
2018-09-13T13:42:25.280Z,101852.76
2018-09-13T13:44:53.846Z,101852.33
2018-09-13T13:47:22.454Z,101850.47
2018-09-13T13:49:51.026Z,101848.02
2018-09-13T13:52:19.611Z,101847.36
2018-09-13T13:54:48.180Z,101841.34
2018-09-13T13:57:16.768Z,101838.39
2018-09-13T13:59:45.368Z,101834.22
2018-09-13T14:02:13.960Z,101825.11
2018-09-13T14:04:42.538Z,101831.53
2018-09-13T14:07:11.130Z,101831.47
2018-09-13T14:09:39.703Z,101831.72
2018-09-13T14:12:08.321Z,101825.73
2018-09-13T14:14:36.880Z,101825.98
2018-09-13T14:17:05.560Z,101830.00
2018-09-13T14:19:34.112Z,101829.23
2018-09-13T14:22:02.701Z,101827.69
2018-09-13T14:24:31.275Z,101830.34
2018-09-13T14:26:59.860Z,101824.91
2018-09-13T14:29:28.463Z,101824.62
2018-09-13T14:31:57.065Z,101820.48
2018-09-13T14:34:25.673Z,101821.47
2018-09-13T14:36:54.290Z,101819.37
2018-09-13T14:39:22.882Z,101820.30
2018-09-13T14:41:51.477Z,101814.17
2018-09-13T14:44:20.049Z,101821.08
2018-09-13T14:46:48.643Z,101813.16
2018-09-13T14:49:17.217Z,101810.22
2018-09-13T14:51:45.890Z,101809.45
2018-09-13T14:54:14.493Z,101805.72
2018-09-13T14:56:43.112Z,101806.63
2018-09-13T14:59:11.702Z,101809.70
2018-09-13T15:01:40.308Z,101809.65
2018-09-13T15:04:08.895Z,101809.87
2018-09-13T15:06:37.557Z,101811.42
2018-09-13T15:09:09.181Z,101810.05
2018-09-13T15:11:37.796Z,101803.45
2018-09-13T15:14:06.425Z,101801.52
2018-09-13T15:16:35.024Z,101803.45
2018-09-13T15:19:03.620Z,101799.77
2018-09-13T15:21:32.229Z,101802.83
2018-09-13T15:24:00.829Z,101800.45
2018-09-13T15:26:30.002Z,101798.22
2018-09-13T15:28:58.630Z,101802.92
2018-09-13T15:31:27.244Z,101798.59
2018-09-13T15:33:55.850Z,101797.58
2018-09-13T15:36:24.443Z,101790.11
2018-09-13T15:38:53.042Z,101793.42
2018-09-13T15:41:21.628Z,101793.77
2018-09-13T15:43:50.365Z,101790.85
2018-09-13T15:46:18.928Z,101792.38
2018-09-13T15:48:47.505Z,101788.02
2018-09-13T15:51:16.079Z,101786.89
2018-09-13T15:53:44.686Z,101785.22
2018-09-13T15:56:13.333Z,101786.68
2018-09-13T15:58:41.977Z,101786.72
2018-09-13T16:01:10.593Z,101788.38
2018-09-13T16:03:39.216Z,101783.41
2018-09-13T16:06:07.812Z,101785.89
2018-09-13T16:08:36.406Z,101791.22
2018-09-13T16:11:05.006Z,101778.80
2018-09-13T16:13:33.601Z,101787.56
2018-09-13T16:16:02.167Z,101784.53
2018-09-13T16:18:30.757Z,101789.30
2018-09-13T16:20:59.401Z,101783.55
2018-09-13T16:23:27.945Z,101786.70
2018-09-13T16:25:56.529Z,101791.64
2018-09-13T16:28:25.153Z,101786.73
2018-09-13T16:30:53.730Z,101785.02
2018-09-13T16:33:22.334Z,101788.92
2018-09-13T16:35:53.175Z,101786.31
2018-09-13T16:38:30.130Z,101780.41
2018-09-13T16:41:04.902Z,101781.19
2018-09-13T16:43:38.860Z,101780.02
2018-09-13T16:46:09.907Z,101777.19
2018-09-13T16:48:42.988Z,101781.78
2018-09-13T16:51:11.956Z,101784.45
2018-09-13T16:53:40.579Z,101785.74
2018-09-13T16:56:09.334Z,101777.60
2018-09-13T16:58:37.933Z,101778.92
2018-09-13T17:01:06.575Z,101776.28
2018-09-13T17:03:35.182Z,101781.02
2018-09-13T17:06:03.770Z,101781.54
2018-09-13T17:08:32.418Z,101786.27
2018-09-13T17:11:01.019Z,101786.61
2018-09-13T17:13:29.645Z,101783.83
2018-09-13T17:15:58.239Z,101784.69
2018-09-13T17:18:26.833Z,101783.28
2018-09-13T17:20:55.405Z,101787.14
2018-09-13T17:23:24.032Z,101786.11
2018-09-13T17:25:52.618Z,101791.89
2018-09-13T17:28:21.232Z,101789.39
2018-09-13T17:30:50.136Z,101791.84
2018-09-13T17:33:18.712Z,101797.62
2018-09-13T17:35:47.309Z,101804.23
2018-09-13T17:38:15.852Z,101796.21
2018-09-13T17:40:44.438Z,101794.55
2018-09-13T17:43:13.012Z,101799.77
2018-09-13T17:45:41.632Z,101805.83
2018-09-13T17:48:10.265Z,101812.96
2018-09-13T17:50:38.839Z,101810.07
2018-09-13T17:53:07.466Z,101816.13
2018-09-13T17:55:36.055Z,101815.70
2018-09-13T17:58:05.291Z,101818.27
2018-09-13T18:00:33.885Z,101814.58
2018-09-13T18:03:02.496Z,101819.64
2018-09-13T18:05:31.084Z,101819.30
2018-09-13T18:07:59.659Z,101817.83
2018-09-13T18:10:28.246Z,101819.06
2018-09-13T18:12:56.865Z,101817.48
2018-09-13T18:15:25.437Z,101822.02
2018-09-13T18:17:53.985Z,101814.39
2018-09-13T18:20:22.584Z,101813.05
2018-09-13T18:22:51.170Z,101819.50
2018-09-13T18:25:19.748Z,101819.18
2018-09-13T18:27:48.319Z,101821.38
2018-09-13T18:30:16.985Z,101824.22
2018-09-13T18:32:45.505Z,101818.28
2018-09-13T18:35:14.110Z,101827.31
2018-09-13T18:37:42.678Z,101825.42
2018-09-13T18:40:11.274Z,101829.67
2018-09-13T18:42:39.883Z,101835.41
2018-09-13T18:45:08.514Z,101835.66
2018-09-13T18:47:37.071Z,101842.73
2018-09-13T18:50:05.662Z,101835.16
2018-09-13T18:52:34.277Z,101837.93
2018-09-13T18:55:02.856Z,101845.45
2018-09-13T18:57:31.417Z,101846.36
2018-09-13T18:59:59.993Z,101842.30
2018-09-13T19:02:28.551Z,101848.92
2018-09-13T19:04:57.214Z,101846.97
2018-09-13T19:07:25.765Z,101851.64
2018-09-13T19:09:54.352Z,101848.11
2018-09-13T19:12:22.904Z,101845.43
2018-09-13T19:14:51.509Z,101850.13
2018-09-13T19:17:20.178Z,101848.66
2018-09-13T19:19:48.693Z,101851.19
2018-09-13T19:22:17.270Z,101860.20
2018-09-13T19:24:45.845Z,101866.11
2018-09-13T19:27:14.415Z,101862.71
2018-09-13T19:29:43.026Z,101860.87
2018-09-13T19:32:11.584Z,101859.02
2018-09-13T19:34:40.191Z,101865.87
2018-09-13T19:37:08.757Z,101863.45
2018-09-13T19:39:37.372Z,101862.98
2018-09-13T19:42:05.982Z,101859.97
2018-09-13T19:44:34.546Z,101866.66
2018-09-13T19:47:03.140Z,101865.86
2018-09-13T19:49:31.720Z,101870.53
2018-09-13T19:52:00.293Z,101872.11
2018-09-13T19:54:28.863Z,101879.03
2018-09-13T19:56:57.439Z,101879.48
2018-09-13T19:59:25.996Z,101877.83
2018-09-13T20:01:54.574Z,101876.47
2018-09-13T20:04:23.141Z,101880.41
2018-09-13T20:06:51.736Z,101881.58
2018-09-13T20:09:20.303Z,101878.96
2018-09-13T20:11:48.926Z,101885.40
2018-09-13T20:14:17.552Z,101880.41
2018-09-13T20:16:46.200Z,101873.36
2018-09-13T20:19:14.795Z,101875.73
2018-09-13T20:21:43.371Z,101879.48
2018-09-13T20:24:11.926Z,101883.26
2018-09-13T20:26:40.505Z,101877.06
2018-09-13T20:29:09.096Z,101877.22
2018-09-13T20:31:37.699Z,101883.41
2018-09-13T20:34:06.348Z,101884.63
2018-09-13T20:36:34.953Z,101880.69
2018-09-13T20:39:04.196Z,101881.41
2018-09-13T20:41:32.760Z,101879.88
2018-09-13T20:44:01.351Z,101879.00
2018-09-13T20:46:29.961Z,101879.16
2018-09-13T20:48:58.577Z,101881.64
2018-09-13T20:51:27.181Z,101881.95
2018-09-13T20:53:55.768Z,101875.39
2018-09-13T20:56:24.373Z,101881.34
2018-09-13T20:58:52.966Z,101880.77
2018-09-13T21:01:21.581Z,101888.09
2018-09-13T21:03:50.153Z,101889.88
2018-09-13T21:06:18.739Z,101885.91
2018-09-13T21:08:47.316Z,101884.19
2018-09-13T21:11:15.924Z,101885.16
2018-09-13T21:13:44.496Z,101889.30
2018-09-13T21:16:13.111Z,101878.76
2018-09-13T21:18:41.708Z,101879.67
2018-09-13T21:21:10.313Z,101882.48
2018-09-13T21:23:38.896Z,101876.89
2018-09-13T21:26:07.621Z,101878.84
2018-09-13T21:28:36.272Z,101876.27
2018-09-13T21:31:04.981Z,101886.71
2018-09-13T21:33:33.950Z,101885.38
2018-09-13T21:36:02.547Z,101879.97
2018-09-13T21:38:31.243Z,101891.61
2018-09-13T21:40:59.847Z,101886.17
2018-09-13T21:43:28.452Z,101887.91
2018-09-13T21:45:57.024Z,101890.89
2018-09-13T21:48:25.676Z,101894.13
2018-09-13T21:50:54.261Z,101891.42
2018-09-13T21:53:22.866Z,101884.78
2018-09-13T21:55:51.455Z,101892.45
2018-09-13T21:58:20.083Z,101886.80
2018-09-13T22:00:48.682Z,101889.88
2018-09-13T22:03:17.273Z,101897.40
2018-09-13T22:05:45.839Z,101896.72
2018-09-13T22:08:14.430Z,101894.15
2018-09-13T22:10:43.008Z,101889.73
2018-09-13T22:13:11.610Z,101891.94
2018-09-13T22:15:40.242Z,101896.35
2018-09-13T22:18:08.823Z,101896.22
2018-09-13T22:20:37.467Z,101903.11
2018-09-13T22:23:06.071Z,101905.17
2018-09-13T22:25:34.647Z,101901.95
2018-09-13T22:28:03.235Z,101902.48
2018-09-13T22:30:31.830Z,101902.84
2018-09-13T22:33:00.430Z,101908.13
2018-09-13T22:35:29.000Z,101898.59
2018-09-13T22:37:58.049Z,101901.66
2018-09-13T22:40:26.629Z,101909.52
2018-09-13T22:42:55.232Z,101906.45
2018-09-13T22:45:23.808Z,101911.20
2018-09-13T22:47:52.398Z,101912.41
2018-09-13T22:50:20.976Z,101911.72
2018-09-13T22:52:49.573Z,101910.18
2018-09-13T22:55:18.162Z,101912.23
2018-09-13T22:57:46.780Z,101913.80
2018-09-13T23:00:15.364Z,101916.19
2018-09-13T23:02:47.900Z,101914.64
2018-09-13T23:05:17.189Z,101915.34
2018-09-13T23:07:46.099Z,101914.48
2018-09-13T23:10:14.766Z,101912.61
2018-09-13T23:12:43.347Z,101914.47
2018-09-13T23:15:11.937Z,101912.25
2018-09-13T23:17:40.588Z,101911.58
2018-09-13T23:20:09.273Z,101911.23
2018-09-13T23:22:37.848Z,101914.81
2018-09-13T23:25:06.480Z,101915.13
2018-09-13T23:27:35.092Z,101907.95
2018-09-13T23:30:03.730Z,101913.06
2018-09-13T23:32:32.318Z,101906.06
2018-09-13T23:35:00.900Z,101903.52
2018-09-13T23:37:29.493Z,101902.49
2018-09-13T23:39:58.344Z,101905.73
2018-09-13T23:42:26.668Z,101913.72
2018-09-13T23:44:55.274Z,101919.16
2018-09-13T23:47:23.847Z,101916.24
2018-09-13T23:49:52.448Z,101915.19
2018-09-13T23:52:21.015Z,101921.66
2018-09-13T23:54:49.615Z,101924.20
2018-09-13T23:57:18.178Z,101918.52
2018-09-13T23:59:46.765Z,101925.33
